Luminous Kobe-2 — JJ3868 — position and weather

sailwx.info

Track history (hours):
 
Tides and Currents Weather Stations Pressure Air Temp Water Temp Dewpoint Dewpoint Depression Visibility Wind Speed Wind Dir Waves Ship Positions

Luminous Kobe-2

Last reported at 2014-Sep-30 19:28 UTC. Time now 2014-Sep-30 20:03 UTC.
Position N 34°41' E 135°11'.

Length 105 m; draft 4.5 m.

Type: Passenger vessel. MMSI: 431000469.

Date/timePositionNaut miles runAvg speedWind from/ knotsBaromVisibWave heightAir tempDewpointWater temp
2014-Sep-30 19:28N 34°41' E 135°11'0 0.0
2014-Sep-30 18:28N 34°41' E 135°11'0 0.0
2014-Sep-30 17:28N 34°41' E 135°11'0 0.0
2014-Sep-30 16:22N 34°41' E 135°11'0 0.0
2014-Sep-30 15:28N 34°41' E 135°11'0 0.0
2014-Sep-30 14:28N 34°41' E 135°11'0 0.0
2014-Sep-30 13:28N 34°41' E 135°11'0 0.0
2014-Sep-30 12:31N 34°41' E 135°11'7 6.9
2014-Sep-30 11:33N 34°36' E 135°06'1 1.2
2014-Sep-30 10:33N 34°37' E 135°06'6 5.3
2014-Sep-30 09:29N 34°41' E 135°11'5 4.9
2014-Sep-30 08:33N 34°38' E 135°07'5 4.4
2014-Sep-30 07:30N 34°41' E 135°11'0 0.0
2014-Sep-30 06:30N 34°41' E 135°11'0 0.0
2014-Sep-30 05:24N 34°41' E 135°11'2 2.8
2014-Sep-30 04:34N 34°38' E 135°11'2 2.2
2014-Sep-30 03:33N 34°38' E 135°14'4 3.7
2014-Sep-30 02:32N 34°41' E 135°11'0 0.0
2014-Sep-30 01:32N 34°41' E 135°11'0 0.0
2014-Sep-30 00:32N 34°41' E 135°11'0 0.0
2014-Sep-29 23:32N 34°41' E 135°11'0 0.0
2014-Sep-29 22:32N 34°41' E 135°11'0 0.0
2014-Sep-29 21:32N 34°41' E 135°11'0 0.0
2014-Sep-29 20:20N 34°41' E 135°11'0 0.0
2014-Sep-29 19:32N 34°41' E 135°11'0 0.0
2014-Sep-29 18:32N 34°41' E 135°11'0 0.0
2014-Sep-29 17:32N 34°41' E 135°11'0 0.0
2014-Sep-29 16:32N 34°41' E 135°11'0 0.0
2014-Sep-29 15:32N 34°41' E 135°11'0 0.0
2014-Sep-29 14:32N 34°41' E 135°11'0 0.0
2014-Sep-29 13:32N 34°41' E 135°11'0 0.0
2014-Sep-29 12:32N 34°41' E 135°11'5 5.6
2014-Sep-29 11:33N 34°36' E 135°08'1 1.1
2014-Sep-29 10:33N 34°37' E 135°06'6 5.6
2014-Sep-29 09:32N 34°41' E 135°11'0 0.0
2014-Sep-29 08:32N 34°41' E 135°11'5 4.7
2014-Sep-29 07:33N 34°38' E 135°07'5 4.4
2014-Sep-29 06:31N 34°41' E 135°11'0 0.0
2014-Sep-29 05:31N 34°41' E 135°11'3 2.7
2014-Sep-29 04:33N 34°38' E 135°11'2 2.2
2014-Sep-29 03:33N 34°37' E 135°13'4 3.9
2014-Sep-29 02:33N 34°41' E 135°11'0 0.0
2014-Sep-29 01:27N 34°41' E 135°11'0 0.0
2014-Sep-29 00:33N 34°41' E 135°11'0 0.0
2014-Sep-28 23:30N 34°41' E 135°11'0 0.0
2014-Sep-28 22:18N 34°41' E 135°11'0 0.0
2014-Sep-28 21:30N 34°41' E 135°11'0 0.0
2014-Sep-28 20:30N 34°41' E 135°11'0 0.0
2014-Sep-28 19:30N 34°41' E 135°11'0 0.0
2014-Sep-28 18:18N 34°41' E 135°11'0 0.0
2014-Sep-28 17:30N 34°41' E 135°11'0 0.0
2014-Sep-28 16:30N 34°41' E 135°11'0 0.0
2014-Sep-28 15:30N 34°41' E 135°11'0 0.0
2014-Sep-28 14:30N 34°41' E 135°11'0 0.0
2014-Sep-28 13:30N 34°41' E 135°11'0 0.0
2014-Sep-28 12:30N 34°41' E 135°11'7 7.3
2014-Sep-28 11:33N 34°35' E 135°06'2 1.7
2014-Sep-28 10:33N 34°37' E 135°07'5 5.3
2014-Sep-28 09:32N 34°41' E 135°11'3 2.6
2014-Sep-28 08:33N 34°38' E 135°11'3 2.5
2014-Sep-28 07:33N 34°37' E 135°14'4 4.1
2014-Sep-28 06:31N 34°41' E 135°11'0 0.0
2014-Sep-28 05:25N 34°41' E 135°11'3 3.3
2014-Sep-28 04:33N 34°38' E 135°11'2 2.5
2014-Sep-28 03:33N 34°37' E 135°14'4 3.8
2014-Sep-28 02:27N 34°41' E 135°11'0 0.0
2014-Sep-28 01:33N 34°41' E 135°11'0 0.0
2014-Sep-28 00:33N 34°41' E 135°11'0 0.0
2014-Sep-27 23:33N 34°41' E 135°11'0 0.0
2014-Sep-27 22:33N 34°41' E 135°11'0 0.0
2014-Sep-27 21:33N 34°41' E 135°11'0 0.0
2014-Sep-27 20:33N 34°41' E 135°11'0 0.0
2014-Sep-27 19:33N 34°41' E 135°11'0 0.0
2014-Sep-27 18:33N 34°41' E 135°11'0 0.0
2014-Sep-27 17:33N 34°41' E 135°11'0 0.0
2014-Sep-27 16:33N 34°41' E 135°11'0 0.0
2014-Sep-27 15:33N 34°41' E 135°11'0 0.0
2014-Sep-27 14:33N 34°41' E 135°11'0 0.0
2014-Sep-27 13:33N 34°41' E 135°11'0 0.0
2014-Sep-27 12:33N 34°41' E 135°11'7 6.8
2014-Sep-27 11:33N 34°35' E 135°07'2 2.4
2014-Sep-27 10:33N 34°37' E 135°08'4 4.1
2014-Sep-27 09:27N 34°41' E 135°11'3 2.8
2014-Sep-27 08:34N 34°38' E 135°11'2 2.5
2014-Sep-27 07:33N 34°37' E 135°14'4 3.3
2014-Sep-27 06:20N 34°41' E 135°11'0 0.0
2014-Sep-27 05:32N 34°41' E 135°11'2 2.4
2014-Sep-27 04:33N 34°38' E 135°11'2 2.4
2014-Sep-27 03:33N 34°37' E 135°14'4 4.1
2014-Sep-27 02:33N 34°41' E 135°11'0 0.0
2014-Sep-27 01:29N 34°41' E 135°11'0 0.0
2014-Sep-27 00:29N 34°41' E 135°11'0 0.0
2014-Sep-26 23:29N 34°41' E 135°11'0 0.0
2014-Sep-26 22:29N 34°41' E 135°11'0 0.0
2014-Sep-26 21:29N 34°41' E 135°11'0 0.0
2014-Sep-26 20:29N 34°41' E 135°11'0 0.0
2014-Sep-26 19:29N 34°41' E 135°11'0 0.0
2014-Sep-26 18:23N 34°41' E 135°11'0 0.0
2014-Sep-26 17:29N 34°41' E 135°11'0 0.0
2014-Sep-26 16:29N 34°41' E 135°11'0 0.0
2014-Sep-26 15:23N 34°41' E 135°11'0 0.0
2014-Sep-26 14:29N 34°41' E 135°11'0 0.0
2014-Sep-26 13:29N 34°41' E 135°11'0 0.0
2014-Sep-26 12:29N 34°41' E 135°11'8 8.9
2014-Sep-26 11:33N 34°35' E 135°04'6 6.1
2014-Sep-26 10:33N 34°38' E 135°10'3 2.1
2014-Sep-26 09:22N 34°41' E 135°11'5 5.8
2014-Sep-26 08:33N 34°38' E 135°07'5 4.4
2014-Sep-26 07:30N 34°41' E 135°11'0 0.0
2014-Sep-26 06:24N 34°41' E 135°11'0 0.0
2014-Sep-26 05:30N 34°41' E 135°11'2 2.6
2014-Sep-26 04:34N 34°38' E 135°11'2 2.5
2014-Sep-26 03:33N 34°37' E 135°14'4 4.2
2014-Sep-26 02:33N 34°41' E 135°11'0 0.0
2014-Sep-26 01:23N 34°41' E 135°11'0 0.0
2014-Sep-26 00:29N 34°41' E 135°11'0 0.0
2014-Sep-25 23:32N 34°41' E 135°11'0 0.0
2014-Sep-25 22:32N 34°41' E 135°11'0 0.0
2014-Sep-25 21:20N 34°41' E 135°11'0 0.0
2014-Sep-25 20:32N 34°41' E 135°11'0 0.0
2014-Sep-25 19:26N 34°41' E 135°11'0 0.0
2014-Sep-25 18:32N 34°41' E 135°11'0 0.0
2014-Sep-25 17:26N 34°41' E 135°11'0 0.0
2014-Sep-25 16:26N 34°41' E 135°11'0 0.0
2014-Sep-25 15:32N 34°41' E 135°11'0 0.0
2014-Sep-25 14:32N 34°41' E 135°11'0 0.0
2014-Sep-25 13:32N 34°41' E 135°11'0 0.0
2014-Sep-25 12:32N 34°41' E 135°11'7 7.1
2014-Sep-25 11:33N 34°35' E 135°06'1 1.3
2014-Sep-25 10:33N 34°37' E 135°07'6 5.6
2014-Sep-25 09:32N 34°41' E 135°11'5 4.7
2014-Sep-25 08:33N 34°37' E 135°07'5 4.6
2014-Sep-25 07:33N 34°41' E 135°11'0 0.0
2014-Sep-25 06:21N 34°41' E 135°11'0 0.0
2014-Sep-25 05:33N 34°41' E 135°11'3 2.7
2014-Sep-25 04:33N 34°38' E 135°11'3 2.6
2014-Sep-25 03:33N 34°37' E 135°14'5 4.4
2014-Sep-25 02:32N 34°41' E 135°11'0 0.0
2014-Sep-25 01:32N 34°41' E 135°11'0 0.0
2014-Sep-25 00:32N 34°41' E 135°11'0 0.0
2014-Sep-24 23:26N 34°41' E 135°11'0 0.0
2014-Sep-24 22:32N 34°41' E 135°11'0 0.0
2014-Sep-24 21:32N 34°41' E 135°11'0 0.0
2014-Sep-24 20:31N 34°41' E 135°11'0 0.0
2014-Sep-24 19:31N 34°41' E 135°11'0 0.0
2014-Sep-24 18:25N 34°41' E 135°11'0 0.0
2014-Sep-24 17:25N 34°41' E 135°11'0 0.0
2014-Sep-24 16:26N 34°41' E 135°11'0 0.0
2014-Sep-24 15:31N 34°41' E 135°11'0 0.0
2014-Sep-24 14:19N 34°41' E 135°11'0 0.0
2014-Sep-24 13:31N 34°41' E 135°11'0 0.0
2014-Sep-24 12:31N 34°41' E 135°11'7 7.6
2014-Sep-24 11:33N 34°35' E 135°06'2 2.3
2014-Sep-24 10:34N 34°37' E 135°07'5 4.7
2014-Sep-24 09:28N 34°41' E 135°11'0 0.0
2014-Sep-24 08:28N 34°41' E 135°11'4 4.6
2014-Sep-24 07:33N 34°38' E 135°08'4 3.8
2014-Sep-24 06:28N 34°41' E 135°11'0 0.0
2014-Sep-24 05:28N 34°41' E 135°11'3 2.9
2014-Sep-24 04:34N 34°38' E 135°11'2 2.3
2014-Sep-24 03:33N 34°37' E 135°13'4 3.9
2014-Sep-24 02:28N 34°41' E 135°11'0 0.0
2014-Sep-24 01:28N 34°41' E 135°11'0 0.0
2014-Sep-24 00:28N 34°41' E 135°11'0 0.0
2014-Sep-23 23:28N 34°41' E 135°11'0 0.0
2014-Sep-23 22:28N 34°41' E 135°11'0 0.0
2014-Sep-23 21:28N 34°41' E 135°11'0 0.0
2014-Sep-23 20:28N 34°41' E 135°11'0 0.0
2014-Sep-23 19:28N 34°41' E 135°11'0 0.0
2014-Sep-23 18:28N 34°41' E 135°11'0 0.0
2014-Sep-23 17:28N 34°41' E 135°11'0 0.0
2014-Sep-23 16:28N 34°41' E 135°11'0 0.0
2014-Sep-23 15:28N 34°41' E 135°11'0 0.0
2014-Sep-23 14:22N 34°41' E 135°11'0 0.0
2014-Sep-23 13:28N 34°41' E 135°11'0 0.0
2014-Sep-23 12:22N 34°41' E 135°11'810.3
2014-Sep-23 11:33N 34°35' E 135°04'5 5.3
2014-Sep-23 10:33N 34°38' E 135°09'3 2.2
2014-Sep-23 09:05N 34°41' E 135°11'2 4.7
2014-Sep-23 08:33N 34°38' E 135°11'2 2.4
2014-Sep-23 07:33N 34°37' E 135°13'4 3.9
2014-Sep-23 06:29N 34°41' E 135°11'0 0.0
2014-Sep-23 05:23N 34°41' E 135°11'3 3.3
2014-Sep-23 04:34N 34°38' E 135°11'2 1.8
2014-Sep-23 03:33N 34°37' E 135°13'4 3.1
2014-Sep-23 02:17N 34°41' E 135°11'0 0.0
2014-Sep-23 01:29N 34°41' E 135°11'0 0.0
2014-Sep-23 00:23N 34°41' E 135°11'0 0.0
2014-Sep-22 23:29N 34°41' E 135°11'0 0.0
2014-Sep-22 22:29N 34°41' E 135°11'0 0.0
2014-Sep-22 21:23N 34°41' E 135°11'0 0.0
2014-Sep-22 20:29N 34°41' E 135°11'0 0.0
2014-Sep-22 19:29N 34°41' E 135°11'0 0.0
2014-Sep-22 18:29N 34°41' E 135°11'0 0.0
2014-Sep-22 17:29N 34°41' E 135°11'0 0.0
2014-Sep-22 16:29N 34°41' E 135°11'0 0.0
2014-Sep-22 15:17N 34°41' E 135°11'0 0.0
2014-Sep-22 14:23N 34°41' E 135°11'0 0.0
2014-Sep-22 13:29N 34°41' E 135°11'0 0.0
2014-Sep-22 12:29N 34°41' E 135°11'6 6.9
2014-Sep-22 11:34N 34°36' E 135°06'1 0.8
2014-Sep-22 10:33N 34°36' E 135°07'6 4.4
2014-Sep-22 09:17N 34°41' E 135°11'0 0.0
2014-Sep-22 08:29N 34°41' E 135°11'5 5.0
2014-Sep-22 07:33N 34°38' E 135°07'5 4.6
2014-Sep-22 06:33N 34°41' E 135°11'0 0.0
2014-Sep-22 05:33N 34°41' E 135°11'3 2.7
2014-Sep-22 04:33N 34°38' E 135°11'2 2.3
2014-Sep-22 03:33N 34°37' E 135°13'4 4.0
2014-Sep-22 02:33N 34°41' E 135°11'0 0.0
2014-Sep-22 01:27N 34°41' E 135°11'0 0.0
2014-Sep-22 00:33N 34°41' E 135°11'0 0.0
2014-Sep-21 23:33N 34°41' E 135°11'0 0.0
2014-Sep-21 22:33N 34°41' E 135°11'0 0.0
2014-Sep-21 21:21N 34°41' E 135°11'0 0.0
2014-Sep-21 20:33N 34°41' E 135°11'0 0.0
2014-Sep-21 19:27N 34°41' E 135°11'0 0.0
2014-Sep-21 18:33N 34°41' E 135°11'0 0.0
2014-Sep-21 17:33N 34°41' E 135°11'0 0.0
2014-Sep-21 16:33N 34°41' E 135°11'0 0.0
2014-Sep-21 15:27N 34°41' E 135°11'0 0.0
2014-Sep-21 14:33N 34°41' E 135°11'0 0.0
2014-Sep-21 13:33N 34°41' E 135°11'0 0.0
2014-Sep-21 12:27N 34°41' E 135°11'6 6.4
2014-Sep-21 11:33N 34°36' E 135°07'0 0.3
2014-Sep-21 10:33N 34°37' E 135°07'6 5.1
2014-Sep-21 09:27N 34°41' E 135°11'3 3.0
2014-Sep-21 08:33N 34°38' E 135°11'2 1.7
2014-Sep-21 07:32N 34°37' E 135°13'4 3.7
2014-Sep-21 06:30N 34°41' E 135°11'0 0.0
2014-Sep-21 05:30N 34°41' E 135°11'3 2.9
2014-Sep-21 04:33N 34°38' E 135°11'3 2.7
2014-Sep-21 03:33N 34°37' E 135°14'4 4.2
2014-Sep-21 02:31N 34°41' E 135°11'0 0.0
2014-Sep-21 01:31N 34°41' E 135°11'0 0.0
2014-Sep-21 00:31N 34°41' E 135°11'0 0.0
2014-Sep-20 23:31N 34°41' E 135°11'0 0.0
2014-Sep-20 22:31N 34°41' E 135°11'0 0.0
2014-Sep-20 21:31N 34°41' E 135°11'0 0.0
2014-Sep-20 20:25N 34°41' E 135°11'0 0.0
2014-Sep-20 19:31N 34°41' E 135°11'  
Track history (hours):
 
Tides and Currents Weather Stations Pressure Air Temp Water Temp Dewpoint Dewpoint Depression Visibility Wind Speed Wind Dir Waves Ship Positions

Luminous Kobe-2

Last reported at 2014-Sep-30 19:28 UTC. Time now 2014-Sep-30 20:03 UTC.
Position N 34°41' E 135°11'.

Length 105 m; draft 4.5 m.

Type: Passenger vessel. MMSI: 431000469.

Date/timePositionNaut miles runAvg speedWind from/ knotsBaromVisibWave heightAir tempDewpointWater temp
2014-Sep-30 19:28N 34°41' E 135°11'0 0.0
2014-Sep-30 18:28N 34°41' E 135°11'0 0.0
2014-Sep-30 17:28N 34°41' E 135°11'0 0.0
2014-Sep-30 16:22N 34°41' E 135°11'0 0.0
2014-Sep-30 15:28N 34°41' E 135°11'0 0.0
2014-Sep-30 14:28N 34°41' E 135°11'0 0.0
2014-Sep-30 13:28N 34°41' E 135°11'0 0.0
2014-Sep-30 12:31N 34°41' E 135°11'7 6.9
2014-Sep-30 11:33N 34°36' E 135°06'1 1.2
2014-Sep-30 10:33N 34°37' E 135°06'6 5.3
2014-Sep-30 09:29N 34°41' E 135°11'5 4.9
2014-Sep-30 08:33N 34°38' E 135°07'5 4.4
2014-Sep-30 07:30N 34°41' E 135°11'0 0.0
2014-Sep-30 06:30N 34°41' E 135°11'0 0.0
2014-Sep-30 05:24N 34°41' E 135°11'2 2.8
2014-Sep-30 04:34N 34°38' E 135°11'2 2.2
2014-Sep-30 03:33N 34°38' E 135°14'4 3.7
2014-Sep-30 02:32N 34°41' E 135°11'0 0.0
2014-Sep-30 01:32N 34°41' E 135°11'0 0.0
2014-Sep-30 00:32N 34°41' E 135°11'0 0.0
2014-Sep-29 23:32N 34°41' E 135°11'0 0.0
2014-Sep-29 22:32N 34°41' E 135°11'0 0.0
2014-Sep-29 21:32N 34°41' E 135°11'0 0.0
2014-Sep-29 20:20N 34°41' E 135°11'0 0.0
2014-Sep-29 19:32N 34°41' E 135°11'0 0.0
2014-Sep-29 18:32N 34°41' E 135°11'0 0.0
2014-Sep-29 17:32N 34°41' E 135°11'0 0.0
2014-Sep-29 16:32N 34°41' E 135°11'0 0.0
2014-Sep-29 15:32N 34°41' E 135°11'0 0.0
2014-Sep-29 14:32N 34°41' E 135°11'0 0.0
2014-Sep-29 13:32N 34°41' E 135°11'0 0.0
2014-Sep-29 12:32N 34°41' E 135°11'5 5.6
2014-Sep-29 11:33N 34°36' E 135°08'1 1.1
2014-Sep-29 10:33N 34°37' E 135°06'6 5.6
2014-Sep-29 09:32N 34°41' E 135°11'0 0.0
2014-Sep-29 08:32N 34°41' E 135°11'5 4.7
2014-Sep-29 07:33N 34°38' E 135°07'5 4.4
2014-Sep-29 06:31N 34°41' E 135°11'0 0.0
2014-Sep-29 05:31N 34°41' E 135°11'3 2.7
2014-Sep-29 04:33N 34°38' E 135°11'2 2.2
2014-Sep-29 03:33N 34°37' E 135°13'4 3.9
2014-Sep-29 02:33N 34°41' E 135°11'0 0.0
2014-Sep-29 01:27N 34°41' E 135°11'0 0.0
2014-Sep-29 00:33N 34°41' E 135°11'0 0.0
2014-Sep-28 23:30N 34°41' E 135°11'0 0.0
2014-Sep-28 22:18N 34°41' E 135°11'0 0.0
2014-Sep-28 21:30N 34°41' E 135°11'0 0.0
2014-Sep-28 20:30N 34°41' E 135°11'0 0.0
2014-Sep-28 19:30N 34°41' E 135°11'0 0.0
2014-Sep-28 18:18N 34°41' E 135°11'0 0.0
2014-Sep-28 17:30N 34°41' E 135°11'0 0.0
2014-Sep-28 16:30N 34°41' E 135°11'0 0.0
2014-Sep-28 15:30N 34°41' E 135°11'0 0.0
2014-Sep-28 14:30N 34°41' E 135°11'0 0.0
2014-Sep-28 13:30N 34°41' E 135°11'0 0.0
2014-Sep-28 12:30N 34°41' E 135°11'7 7.3
2014-Sep-28 11:33N 34°35' E 135°06'2 1.7
2014-Sep-28 10:33N 34°37' E 135°07'5 5.3
2014-Sep-28 09:32N 34°41' E 135°11'3 2.6
2014-Sep-28 08:33N 34°38' E 135°11'3 2.5
2014-Sep-28 07:33N 34°37' E 135°14'4 4.1
2014-Sep-28 06:31N 34°41' E 135°11'0 0.0
2014-Sep-28 05:25N 34°41' E 135°11'3 3.3
2014-Sep-28 04:33N 34°38' E 135°11'2 2.5
2014-Sep-28 03:33N 34°37' E 135°14'4 3.8
2014-Sep-28 02:27N 34°41' E 135°11'0 0.0
2014-Sep-28 01:33N 34°41' E 135°11'0 0.0
2014-Sep-28 00:33N 34°41' E 135°11'0 0.0
2014-Sep-27 23:33N 34°41' E 135°11'0 0.0
2014-Sep-27 22:33N 34°41' E 135°11'0 0.0
2014-Sep-27 21:33N 34°41' E 135°11'0 0.0
2014-Sep-27 20:33N 34°41' E 135°11'0 0.0
2014-Sep-27 19:33N 34°41' E 135°11'0 0.0
2014-Sep-27 18:33N 34°41' E 135°11'0 0.0
2014-Sep-27 17:33N 34°41' E 135°11'0 0.0
2014-Sep-27 16:33N 34°41' E 135°11'0 0.0
2014-Sep-27 15:33N 34°41' E 135°11'0 0.0
2014-Sep-27 14:33N 34°41' E 135°11'0 0.0
2014-Sep-27 13:33N 34°41' E 135°11'0 0.0
2014-Sep-27 12:33N 34°41' E 135°11'7 6.8
2014-Sep-27 11:33N 34°35' E 135°07'2 2.4
2014-Sep-27 10:33N 34°37' E 135°08'4 4.1
2014-Sep-27 09:27N 34°41' E 135°11'3 2.8
2014-Sep-27 08:34N 34°38' E 135°11'2 2.5
2014-Sep-27 07:33N 34°37' E 135°14'4 3.3
2014-Sep-27 06:20N 34°41' E 135°11'0 0.0
2014-Sep-27 05:32N 34°41' E 135°11'2 2.4
2014-Sep-27 04:33N 34°38' E 135°11'2 2.4
2014-Sep-27 03:33N 34°37' E 135°14'4 4.1
2014-Sep-27 02:33N 34°41' E 135°11'0 0.0
2014-Sep-27 01:29N 34°41' E 135°11'0 0.0
2014-Sep-27 00:29N 34°41' E 135°11'0 0.0
2014-Sep-26 23:29N 34°41' E 135°11'0 0.0
2014-Sep-26 22:29N 34°41' E 135°11'0 0.0
2014-Sep-26 21:29N 34°41' E 135°11'0 0.0
2014-Sep-26 20:29N 34°41' E 135°11'0 0.0
2014-Sep-26 19:29N 34°41' E 135°11'0 0.0
2014-Sep-26 18:23N 34°41' E 135°11'0 0.0
2014-Sep-26 17:29N 34°41' E 135°11'0 0.0
2014-Sep-26 16:29N 34°41' E 135°11'0 0.0
2014-Sep-26 15:23N 34°41' E 135°11'0 0.0
2014-Sep-26 14:29N 34°41' E 135°11'0 0.0
2014-Sep-26 13:29N 34°41' E 135°11'0 0.0
2014-Sep-26 12:29N 34°41' E 135°11'8 8.9
2014-Sep-26 11:33N 34°35' E 135°04'6 6.1
2014-Sep-26 10:33N 34°38' E 135°10'3 2.1
2014-Sep-26 09:22N 34°41' E 135°11'5 5.8
2014-Sep-26 08:33N 34°38' E 135°07'5 4.4
2014-Sep-26 07:30N 34°41' E 135°11'0 0.0
2014-Sep-26 06:24N 34°41' E 135°11'0 0.0
2014-Sep-26 05:30N 34°41' E 135°11'2 2.6
2014-Sep-26 04:34N 34°38' E 135°11'2 2.5
2014-Sep-26 03:33N 34°37' E 135°14'4 4.2
2014-Sep-26 02:33N 34°41' E 135°11'0 0.0
2014-Sep-26 01:23N 34°41' E 135°11'0 0.0
2014-Sep-26 00:29N 34°41' E 135°11'0 0.0
2014-Sep-25 23:32N 34°41' E 135°11'0 0.0
2014-Sep-25 22:32N 34°41' E 135°11'0 0.0
2014-Sep-25 21:20N 34°41' E 135°11'0 0.0
2014-Sep-25 20:32N 34°41' E 135°11'0 0.0
2014-Sep-25 19:26N 34°41' E 135°11'0 0.0
2014-Sep-25 18:32N 34°41' E 135°11'0 0.0
2014-Sep-25 17:26N 34°41' E 135°11'0 0.0
2014-Sep-25 16:26N 34°41' E 135°11'0 0.0
2014-Sep-25 15:32N 34°41' E 135°11'0 0.0
2014-Sep-25 14:32N 34°41' E 135°11'0 0.0
2014-Sep-25 13:32N 34°41' E 135°11'0 0.0
2014-Sep-25 12:32N 34°41' E 135°11'7 7.1
2014-Sep-25 11:33N 34°35' E 135°06'1 1.3
2014-Sep-25 10:33N 34°37' E 135°07'6 5.6
2014-Sep-25 09:32N 34°41' E 135°11'5 4.7
2014-Sep-25 08:33N 34°37' E 135°07'5 4.6
2014-Sep-25 07:33N 34°41' E 135°11'0 0.0
2014-Sep-25 06:21N 34°41' E 135°11'0 0.0
2014-Sep-25 05:33N 34°41' E 135°11'3 2.7
2014-Sep-25 04:33N 34°38' E 135°11'3 2.6
2014-Sep-25 03:33N 34°37' E 135°14'5 4.4
2014-Sep-25 02:32N 34°41' E 135°11'0 0.0
2014-Sep-25 01:32N 34°41' E 135°11'0 0.0
2014-Sep-25 00:32N 34°41' E 135°11'0 0.0
2014-Sep-24 23:26N 34°41' E 135°11'0 0.0
2014-Sep-24 22:32N 34°41' E 135°11'0 0.0
2014-Sep-24 21:32N 34°41' E 135°11'0 0.0
2014-Sep-24 20:31N 34°41' E 135°11'0 0.0
2014-Sep-24 19:31N 34°41' E 135°11'0 0.0
2014-Sep-24 18:25N 34°41' E 135°11'0 0.0
2014-Sep-24 17:25N 34°41' E 135°11'0 0.0
2014-Sep-24 16:26N 34°41' E 135°11'0 0.0
2014-Sep-24 15:31N 34°41' E 135°11'0 0.0
2014-Sep-24 14:19N 34°41' E 135°11'0 0.0
2014-Sep-24 13:31N 34°41' E 135°11'0 0.0
2014-Sep-24 12:31N 34°41' E 135°11'7 7.6
2014-Sep-24 11:33N 34°35' E 135°06'2 2.3
2014-Sep-24 10:34N 34°37' E 135°07'5 4.7
2014-Sep-24 09:28N 34°41' E 135°11'0 0.0
2014-Sep-24 08:28N 34°41' E 135°11'4 4.6
2014-Sep-24 07:33N 34°38' E 135°08'4 3.8
2014-Sep-24 06:28N 34°41' E 135°11'0 0.0
2014-Sep-24 05:28N 34°41' E 135°11'3 2.9
2014-Sep-24 04:34N 34°38' E 135°11'2 2.3
2014-Sep-24 03:33N 34°37' E 135°13'4 3.9
2014-Sep-24 02:28N 34°41' E 135°11'0 0.0
2014-Sep-24 01:28N 34°41' E 135°11'0 0.0
2014-Sep-24 00:28N 34°41' E 135°11'0 0.0
2014-Sep-23 23:28N 34°41' E 135°11'0 0.0
2014-Sep-23 22:28N 34°41' E 135°11'0 0.0
2014-Sep-23 21:28N 34°41' E 135°11'0 0.0
2014-Sep-23 20:28N 34°41' E 135°11'0 0.0
2014-Sep-23 19:28N 34°41' E 135°11'0 0.0
2014-Sep-23 18:28N 34°41' E 135°11'0 0.0
2014-Sep-23 17:28N 34°41' E 135°11'0 0.0
2014-Sep-23 16:28N 34°41' E 135°11'0 0.0
2014-Sep-23 15:28N 34°41' E 135°11'0 0.0
2014-Sep-23 14:22N 34°41' E 135°11'0 0.0
2014-Sep-23 13:28N 34°41' E 135°11'0 0.0
2014-Sep-23 12:22N 34°41' E 135°11'810.3
2014-Sep-23 11:33N 34°35' E 135°04'5 5.3
2014-Sep-23 10:33N 34°38' E 135°09'3 2.2
2014-Sep-23 09:05N 34°41' E 135°11'2 4.7
2014-Sep-23 08:33N 34°38' E 135°11'2 2.4
2014-Sep-23 07:33N 34°37' E 135°13'4 3.9
2014-Sep-23 06:29N 34°41' E 135°11'0 0.0
2014-Sep-23 05:23N 34°41' E 135°11'3 3.3
2014-Sep-23 04:34N 34°38' E 135°11'2 1.8
2014-Sep-23 03:33N 34°37' E 135°13'4 3.1
2014-Sep-23 02:17N 34°41' E 135°11'0 0.0
2014-Sep-23 01:29N 34°41' E 135°11'0 0.0
2014-Sep-23 00:23N 34°41' E 135°11'0 0.0
2014-Sep-22 23:29N 34°41' E 135°11'0 0.0
2014-Sep-22 22:29N 34°41' E 135°11'0 0.0
2014-Sep-22 21:23N 34°41' E 135°11'0 0.0
2014-Sep-22 20:29N 34°41' E 135°11'0 0.0
2014-Sep-22 19:29N 34°41' E 135°11'0 0.0
2014-Sep-22 18:29N 34°41' E 135°11'0 0.0
2014-Sep-22 17:29N 34°41' E 135°11'0 0.0
2014-Sep-22 16:29N 34°41' E 135°11'0 0.0
2014-Sep-22 15:17N 34°41' E 135°11'0 0.0
2014-Sep-22 14:23N 34°41' E 135°11'0 0.0
2014-Sep-22 13:29N 34°41' E 135°11'0 0.0
2014-Sep-22 12:29N 34°41' E 135°11'6 6.9
2014-Sep-22 11:34N 34°36' E 135°06'1 0.8
2014-Sep-22 10:33N 34°36' E 135°07'6 4.4
2014-Sep-22 09:17N 34°41' E 135°11'0 0.0
2014-Sep-22 08:29N 34°41' E 135°11'5 5.0
2014-Sep-22 07:33N 34°38' E 135°07'5 4.6
2014-Sep-22 06:33N 34°41' E 135°11'0 0.0
2014-Sep-22 05:33N 34°41' E 135°11'3 2.7
2014-Sep-22 04:33N 34°38' E 135°11'2 2.3
2014-Sep-22 03:33N 34°37' E 135°13'4 4.0
2014-Sep-22 02:33N 34°41' E 135°11'0 0.0
2014-Sep-22 01:27N 34°41' E 135°11'0 0.0
2014-Sep-22 00:33N 34°41' E 135°11'0 0.0
2014-Sep-21 23:33N 34°41' E 135°11'0 0.0
2014-Sep-21 22:33N 34°41' E 135°11'0 0.0
2014-Sep-21 21:21N 34°41' E 135°11'0 0.0
2014-Sep-21 20:33N 34°41' E 135°11'0 0.0
2014-Sep-21 19:27N 34°41' E 135°11'0 0.0
2014-Sep-21 18:33N 34°41' E 135°11'0 0.0
2014-Sep-21 17:33N 34°41' E 135°11'0 0.0
2014-Sep-21 16:33N 34°41' E 135°11'0 0.0
2014-Sep-21 15:27N 34°41' E 135°11'0 0.0
2014-Sep-21 14:33N 34°41' E 135°11'0 0.0
2014-Sep-21 13:33N 34°41' E 135°11'0 0.0
2014-Sep-21 12:27N 34°41' E 135°11'6 6.4
2014-Sep-21 11:33N 34°36' E 135°07'0 0.3
2014-Sep-21 10:33N 34°37' E 135°07'6 5.1
2014-Sep-21 09:27N 34°41' E 135°11'3 3.0
2014-Sep-21 08:33N 34°38' E 135°11'2 1.7
2014-Sep-21 07:32N 34°37' E 135°13'4 3.7
2014-Sep-21 06:30N 34°41' E 135°11'0 0.0
2014-Sep-21 05:30N 34°41' E 135°11'3 2.9
2014-Sep-21 04:33N 34°38' E 135°11'3 2.7
2014-Sep-21 03:33N 34°37' E 135°14'4 4.2
2014-Sep-21 02:31N 34°41' E 135°11'0 0.0
2014-Sep-21 01:31N 34°41' E 135°11'0 0.0
2014-Sep-21 00:31N 34°41' E 135°11'0 0.0
2014-Sep-20 23:31N 34°41' E 135°11'0 0.0
2014-Sep-20 22:31N 34°41' E 135°11'0 0.0
2014-Sep-20 21:31N 34°41' E 135°11'0 0.0
2014-Sep-20 20:25N 34°41' E 135°11'0 0.0
2014-Sep-20 19:31N 34°41' E 135°11'  

Dump ship's entire track history